Gruyeres Airport LSGT

Flugplatz Daten

Name: Gruyeres Airport

Ident: LSGT

Lat: 46,59420013

Long: 7,094439983

Platzhöhe: 2257 ft

IataCode:

City:

Metar

2021/10/14 00:58
KQOA 140058Z 33006KT 9999 BKN120 BKN2000 26/18 A2992 RMK AO2A SLP094 WND DATA ESTMD ALSGT ESTMD T02640187

Taf

Gewünschte Webcam nicht vorhanden? Dann fügen Sie eine hinzu. Sie wird dann so schnell wie möglich freigeschaltet
Url: Title: